createdAt,value
2023-03-24T00:07:06.827Z,7.40
2023-03-24T00:25:47.299Z,5.00
2023-03-24T00:44:26.258Z,6.00
2023-03-24T01:03:10.078Z,5.30
2023-03-24T01:59:03.374Z,7.10
2023-03-24T02:17:44.745Z,6.20
2023-03-24T02:55:02.533Z,8.50
2023-03-24T03:13:42.265Z,8.80
2023-03-24T03:32:22.951Z,6.50
2023-03-24T03:51:13.513Z,7.40
2023-03-24T04:09:39.942Z,7.80
2023-03-24T04:28:21.983Z,8.60
2023-03-24T04:46:58.704Z,9.80
2023-03-24T05:05:40.513Z,8.40
2023-03-24T05:24:20.274Z,7.80
2023-03-24T05:42:59.904Z,7.10
2023-03-24T06:01:42.160Z,8.90
2023-03-24T06:20:22.077Z,11.00
2023-03-24T06:39:02.446Z,11.30
2023-03-24T06:57:43.518Z,7.70
2023-03-24T07:16:27.241Z,9.90
2023-03-24T07:35:08.533Z,8.50
2023-03-24T07:53:51.359Z,10.90
2023-03-24T08:12:33.213Z,8.80
2023-03-24T08:31:16.442Z,8.70
2023-03-24T08:50:00.904Z,10.80
2023-03-24T09:08:45.135Z,10.30
2023-03-24T09:27:25.832Z,10.60
2023-03-24T09:46:09.013Z,8.70
2023-03-24T10:04:51.080Z,9.50
2023-03-24T10:23:33.443Z,6.80
2023-03-24T10:42:14.998Z,7.60
2023-03-24T11:00:51.653Z,6.40
2023-03-24T11:38:14.650Z,8.80
2023-03-24T11:56:50.247Z,10.20
2023-03-24T12:52:51.098Z,7.60
2023-03-24T13:11:32.559Z,9.70
2023-03-24T13:30:09.077Z,10.00
2023-03-24T13:48:55.475Z,7.70
2023-03-24T14:07:44.797Z,9.60
2023-03-24T15:03:49.783Z,8.30
2023-03-24T15:22:18.119Z,7.10
2023-03-24T15:41:00.553Z,9.20
2023-03-24T15:59:31.544Z,10.40
2023-03-24T16:18:11.508Z,9.80
2023-03-24T16:36:44.711Z,10.60
2023-03-24T17:13:58.626Z,10.90
2023-03-24T17:32:37.020Z,12.70
2023-03-24T17:51:15.834Z,11.40
2023-03-24T18:09:55.276Z,17.70
2023-03-24T18:28:34.083Z,12.30
2023-03-24T18:47:13.919Z,16.10
2023-03-24T19:05:53.556Z,15.00
2023-03-24T19:24:34.980Z,16.80
2023-03-24T19:43:13.238Z,13.70
2023-03-24T20:01:51.486Z,13.20
2023-03-24T20:20:31.255Z,15.80
2023-03-24T20:39:09.897Z,12.60
2023-03-24T20:57:49.332Z,13.90
2023-03-24T21:16:30.281Z,10.90
2023-03-24T21:35:11.584Z,11.70
2023-03-24T21:53:48.023Z,9.70
2023-03-24T22:12:26.875Z,11.90
2023-03-24T22:31:05.506Z,8.90
2023-03-24T22:49:45.784Z,12.30
2023-03-24T23:08:25.683Z,13.00
2023-03-24T23:27:06.085Z,11.50
2023-03-24T23:45:53.781Z,10.50
